createdAt,value
2023-04-28T00:00:21.774Z,82.60
2023-04-28T00:02:52.363Z,82.90
2023-04-28T00:05:19.549Z,83.60
2023-04-28T00:07:46.571Z,83.60
2023-04-28T00:10:13.412Z,83.30
2023-04-28T00:12:40.213Z,83.50
2023-04-28T00:15:07.495Z,83.20
2023-04-28T00:17:34.352Z,83.60
2023-04-28T00:20:01.102Z,83.30
2023-04-28T00:22:27.852Z,83.80
2023-04-28T00:24:54.573Z,84.10
2023-04-28T00:27:21.261Z,83.70
2023-04-28T00:29:47.943Z,83.40
2023-04-28T00:32:14.709Z,83.50
2023-04-28T00:34:41.516Z,83.70
2023-04-28T00:37:08.246Z,83.80
2023-04-28T00:39:34.967Z,83.80
2023-04-28T00:42:02.376Z,84.40
2023-04-28T00:44:29.061Z,84.30
2023-04-28T00:46:56.639Z,84.50
2023-04-28T00:49:23.381Z,84.20
2023-04-28T00:51:50.114Z,84.50
2023-04-28T00:54:17.425Z,85.00
2023-04-28T00:56:44.796Z,84.30
2023-04-28T00:59:11.485Z,84.80
2023-04-28T01:01:38.549Z,84.90
2023-04-28T01:04:05.485Z,84.90
2023-04-28T01:06:33.164Z,85.00
2023-04-28T01:08:59.920Z,85.30
2023-04-28T01:11:26.696Z,85.20
2023-04-28T01:13:53.550Z,85.50
2023-04-28T01:16:20.657Z,85.40
2023-04-28T01:18:48.547Z,85.90
2023-04-28T01:21:15.370Z,86.00
2023-04-28T01:23:48.611Z,86.10
2023-04-28T01:26:15.418Z,86.00
2023-04-28T01:28:42.137Z,85.80
2023-04-28T01:33:36.909Z,85.80
2023-04-28T01:36:03.742Z,85.50
2023-04-28T01:38:30.698Z,85.80
2023-04-28T01:40:58.553Z,85.80
2023-04-28T01:43:25.403Z,86.10
2023-04-28T01:45:52.123Z,86.40
2023-04-28T01:48:18.892Z,86.20
2023-04-28T01:50:45.933Z,86.50
2023-04-28T01:53:12.742Z,86.50
2023-04-28T01:56:16.832Z,86.70
2023-04-28T01:58:43.644Z,86.70
2023-04-28T02:01:10.517Z,86.60
2023-04-28T02:03:37.397Z,86.40
2023-04-28T02:06:04.897Z,86.20
2023-04-28T02:08:31.842Z,86.40
2023-04-28T02:10:58.547Z,86.50
2023-04-28T02:13:25.230Z,86.40
2023-04-28T02:15:52.068Z,86.40
2023-04-28T02:18:18.870Z,86.50
2023-04-28T02:20:45.754Z,86.60
2023-04-28T02:23:12.506Z,86.70
2023-04-28T02:25:39.178Z,86.60
2023-04-28T02:28:05.932Z,87.40
2023-04-28T02:32:59.754Z,87.10
2023-04-28T02:35:26.538Z,87.30
2023-04-28T02:37:53.233Z,87.40
2023-04-28T02:40:20.046Z,87.50
2023-04-28T02:42:46.827Z,87.30
2023-04-28T02:45:13.659Z,86.90
2023-04-28T02:47:40.489Z,87.10
2023-04-28T02:50:08.050Z,87.40
2023-04-28T02:52:34.857Z,87.20
2023-04-28T02:55:03.710Z,87.50
2023-04-28T02:57:30.679Z,87.50
2023-04-28T02:59:57.398Z,87.60
2023-04-28T03:02:24.267Z,87.40
2023-04-28T03:04:51.208Z,87.60
2023-04-28T03:07:17.999Z,87.70
2023-04-28T03:09:46.250Z,87.70
2023-04-28T03:12:13.178Z,88.00
2023-04-28T03:14:39.955Z,88.30
2023-04-28T03:19:34.361Z,88.20
2023-04-28T03:22:01.109Z,88.30
2023-04-28T03:24:27.793Z,88.50
2023-04-28T03:26:54.633Z,88.20
2023-04-28T03:29:21.360Z,88.00
2023-04-28T03:31:48.088Z,88.70
2023-04-28T03:34:15.046Z,89.00
2023-04-28T03:36:41.949Z,89.20
2023-04-28T03:39:09.842Z,88.60
2023-04-28T03:41:36.544Z,88.50
2023-04-28T03:44:03.216Z,88.70
2023-04-28T03:46:29.948Z,88.80
2023-04-28T03:48:56.824Z,88.30
2023-04-28T03:51:23.560Z,89.10
2023-04-28T03:53:50.306Z,89.60
2023-04-28T03:56:16.990Z,89.30
2023-04-28T03:58:43.710Z,89.00
2023-04-28T04:01:10.785Z,89.60
2023-04-28T04:03:37.944Z,89.90
2023-04-28T04:06:05.130Z,90.00
2023-04-28T04:08:32.922Z,89.70
2023-04-28T04:10:59.737Z,90.00
2023-04-28T04:13:26.683Z,90.10
2023-04-28T04:15:53.452Z,90.60
2023-04-28T04:18:20.313Z,90.80
2023-04-28T04:20:47.127Z,90.50
2023-04-28T04:23:13.839Z,90.40
2023-04-28T04:25:40.767Z,90.20
2023-04-28T04:28:07.816Z,90.10
2023-04-28T04:30:34.561Z,89.90
2023-04-28T04:33:01.686Z,89.70
2023-04-28T04:35:28.554Z,89.90
2023-04-28T04:37:55.408Z,89.90
2023-04-28T04:42:49.400Z,90.30
2023-04-28T04:45:16.332Z,90.40
2023-04-28T04:47:43.530Z,89.60
2023-04-28T04:50:11.389Z,90.10
2023-04-28T04:52:38.420Z,90.70
2023-04-28T04:55:06.023Z,90.50
2023-04-28T04:57:32.711Z,90.40
2023-04-28T04:59:59.474Z,90.50
2023-04-28T05:02:26.168Z,90.20
2023-04-28T05:04:53.640Z,90.20
2023-04-28T05:07:22.641Z,89.70
2023-04-28T05:09:49.619Z,89.90
2023-04-28T05:17:10.900Z,89.90
2023-04-28T05:19:37.729Z,90.40
2023-04-28T05:22:04.535Z,90.70
2023-04-28T05:24:31.292Z,90.00
2023-04-28T05:26:59.374Z,90.20
2023-04-28T05:29:26.069Z,90.70
2023-04-28T05:31:52.968Z,90.90
2023-04-28T05:34:19.935Z,90.10
2023-04-28T05:36:46.945Z,90.20
2023-04-28T05:39:13.708Z,90.30
2023-04-28T05:41:40.712Z,90.50
2023-04-28T05:44:07.504Z,90.80
2023-04-28T05:46:34.352Z,91.00
2023-04-28T05:49:01.344Z,90.90
2023-04-28T05:51:28.128Z,90.20
2023-04-28T05:53:54.839Z,91.40
2023-04-28T05:56:21.602Z,91.10
2023-04-28T05:58:50.466Z,90.00
2023-04-28T06:01:17.546Z,90.00
2023-04-28T06:03:45.265Z,89.80
2023-04-28T06:06:13.059Z,89.60
2023-04-28T06:08:39.942Z,87.80
2023-04-28T06:11:06.920Z,87.50
2023-04-28T06:13:33.712Z,86.50
2023-04-28T06:16:00.742Z,86.10
2023-04-28T06:18:27.687Z,86.00
2023-04-28T06:21:13.985Z,85.90
2023-04-28T06:23:42.241Z,85.80
2023-04-28T06:26:09.400Z,85.70
2023-04-28T06:28:36.219Z,86.10
2023-04-28T06:31:03.078Z,86.20
2023-04-28T06:33:29.973Z,86.00
2023-04-28T06:35:56.766Z,86.20
2023-04-28T06:40:50.730Z,86.30
2023-04-28T06:43:17.513Z,86.40
2023-04-28T06:45:44.575Z,86.20
2023-04-28T06:48:11.384Z,86.20
2023-04-28T06:50:38.320Z,86.10
2023-04-28T06:53:05.102Z,86.60
2023-04-28T06:55:31.931Z,86.10
2023-04-28T06:57:58.835Z,86.20
2023-04-28T07:00:25.645Z,86.50
2023-04-28T07:02:52.624Z,87.50
2023-04-28T07:05:19.432Z,89.40
2023-04-28T07:07:46.290Z,89.80
2023-04-28T07:12:42.616Z,90.60
2023-04-28T07:15:10.451Z,89.80
2023-04-28T07:17:37.721Z,90.80
2023-04-28T07:20:05.476Z,91.50
2023-04-28T07:22:32.285Z,91.40
2023-04-28T07:24:59.071Z,91.10
2023-04-28T07:27:25.906Z,90.70
2023-04-28T07:29:52.626Z,91.30
2023-04-28T07:32:19.527Z,90.40
2023-04-28T07:34:46.482Z,90.30
2023-04-28T07:37:13.361Z,90.40
2023-04-28T07:39:41.642Z,89.80
2023-04-28T07:42:08.609Z,90.40
2023-04-28T07:44:35.575Z,90.10
2023-04-28T07:47:02.867Z,90.10
2023-04-28T07:49:29.896Z,90.10
2023-04-28T07:51:56.925Z,90.00
2023-04-28T07:54:24.186Z,90.00
2023-04-28T07:56:51.349Z,90.50
2023-04-28T07:59:18.128Z,90.00
2023-04-28T08:01:44.896Z,90.10
2023-04-28T08:04:11.992Z,89.60
2023-04-28T08:06:40.095Z,90.20
2023-04-28T08:09:07.124Z,90.20
2023-04-28T08:11:34.770Z,90.00
2023-04-28T08:14:03.174Z,89.90
2023-04-28T08:16:31.524Z,90.50
2023-04-28T08:18:59.652Z,90.20
2023-04-28T08:21:27.100Z,89.70
2023-04-28T08:23:53.985Z,89.30
2023-04-28T08:26:20.848Z,89.90
2023-04-28T08:28:47.628Z,90.10
2023-04-28T08:31:14.472Z,90.30
2023-04-28T08:33:44.574Z,90.40
2023-04-28T08:36:15.157Z,90.80
2023-04-28T08:38:43.097Z,90.80
2023-04-28T08:41:10.209Z,90.50
2023-04-28T08:43:38.770Z,90.20
2023-04-28T08:46:08.538Z,90.20
2023-04-28T08:48:45.203Z,90.30
2023-04-28T08:51:23.408Z,90.00
2023-04-28T08:56:26.810Z,89.90
2023-04-28T08:58:54.800Z,90.20
2023-04-28T09:01:21.546Z,90.60
2023-04-28T09:03:49.335Z,90.30
2023-04-28T09:06:16.398Z,90.50
2023-04-28T09:08:43.137Z,91.30
2023-04-28T09:11:13.464Z,91.00
2023-04-28T09:13:40.954Z,91.30
2023-04-28T09:16:08.042Z,91.50
2023-04-28T09:18:34.949Z,91.90
2023-04-28T09:21:09.495Z,92.00
2023-04-28T09:23:48.755Z,91.70
2023-04-28T09:26:15.541Z,91.60
2023-04-28T09:28:42.487Z,91.70
2023-04-28T09:31:29.560Z,91.70
2023-04-28T09:34:00.285Z,92.20
2023-04-28T09:36:30.615Z,92.00
2023-04-28T09:39:00.940Z,92.30
2023-04-28T09:41:38.361Z,92.00
2023-04-28T09:44:19.576Z,92.30
2023-04-28T09:46:47.461Z,92.40
2023-04-28T09:49:15.422Z,92.40
2023-04-28T09:51:43.044Z,92.20
2023-04-28T09:54:11.308Z,92.40
2023-04-28T09:56:40.782Z,92.40
2023-04-28T09:59:08.133Z,92.60
2023-04-28T10:01:40.608Z,92.80
2023-04-28T10:04:08.969Z,93.60
2023-04-28T10:06:36.924Z,94.60
2023-04-28T10:09:03.999Z,95.10
2023-04-28T10:11:31.502Z,95.60
2023-04-28T10:13:58.269Z,96.40
2023-04-28T10:16:27.722Z,96.80
2023-04-28T10:18:56.661Z,96.20
2023-04-28T10:21:24.630Z,95.70
2023-04-28T10:23:57.949Z,96.00
2023-04-28T10:26:36.567Z,97.20
2023-04-28T10:29:03.907Z,97.00
2023-04-28T10:31:30.678Z,96.80
2023-04-28T10:34:24.504Z,97.30
2023-04-28T10:36:54.951Z,96.20
2023-04-28T10:39:21.786Z,96.10
2023-04-28T10:41:49.228Z,95.80
2023-04-28T10:44:28.433Z,95.70
2023-04-28T10:47:09.567Z,95.70
2023-04-28T10:49:56.212Z,95.80
2023-04-28T10:52:49.907Z,96.10
2023-04-28T10:55:41.858Z,95.50
2023-04-28T10:58:20.553Z,95.70
2023-04-28T11:00:48.063Z,96.20
2023-04-28T11:03:38.257Z,96.20
2023-04-28T11:06:28.432Z,96.50
2023-04-28T11:09:15.359Z,96.80
2023-04-28T11:12:00.766Z,96.90
2023-04-28T11:14:33.950Z,96.00
2023-04-28T11:17:04.735Z,95.60
2023-04-28T11:19:39.297Z,95.10
2023-04-28T11:22:13.914Z,94.30
2023-04-28T11:24:40.794Z,94.70
2023-04-28T11:27:08.452Z,94.20
2023-04-28T11:29:38.086Z,94.80
2023-04-28T11:32:06.801Z,95.00
2023-04-28T11:34:34.377Z,93.40
2023-04-28T11:37:01.330Z,93.40
2023-04-28T11:39:34.731Z,91.70
2023-04-28T11:42:09.087Z,91.90
2023-04-28T11:44:36.006Z,91.70
2023-04-28T11:47:04.117Z,91.90
2023-04-28T11:49:45.563Z,92.90
2023-04-28T11:52:13.794Z,93.60
2023-04-28T11:54:43.347Z,93.60
2023-04-28T11:57:21.106Z,93.50
2023-04-28T11:59:49.065Z,93.90
2023-04-28T12:02:17.764Z,93.70
2023-04-28T12:04:44.577Z,93.60
2023-04-28T12:07:16.755Z,93.40
2023-04-28T12:09:45.341Z,93.70
2023-04-28T12:12:40.248Z,94.10
2023-04-28T12:15:12.671Z,93.30
2023-04-28T12:17:41.794Z,93.80
2023-04-28T12:20:10.399Z,94.10
2023-04-28T12:22:47.601Z,94.30
2023-04-28T12:25:19.370Z,94.40
2023-04-28T12:28:07.401Z,94.70
2023-04-28T12:30:38.745Z,95.60
2023-04-28T12:33:05.997Z,94.80
2023-04-28T12:35:33.304Z,94.80
2023-04-28T12:38:00.335Z,94.70
2023-04-28T12:40:27.432Z,94.50
2023-04-28T12:42:54.714Z,94.00
2023-04-28T12:45:21.460Z,94.40
2023-04-28T12:47:48.452Z,94.00
2023-04-28T12:50:15.305Z,94.20
2023-04-28T12:52:42.131Z,94.30
2023-04-28T12:55:09.324Z,94.30
2023-04-28T12:57:39.120Z,94.30
2023-04-28T13:00:07.646Z,94.90
2023-04-28T13:02:35.027Z,95.20
2023-04-28T13:05:02.138Z,94.90
2023-04-28T13:07:30.361Z,94.70
2023-04-28T13:09:58.051Z,94.20
2023-04-28T13:12:25.044Z,94.20
2023-04-28T13:14:51.830Z,94.60
2023-04-28T13:17:18.645Z,94.80
2023-04-28T13:19:45.600Z,94.90
2023-04-28T13:22:12.554Z,95.00
2023-04-28T13:24:39.361Z,95.00
2023-04-28T13:27:09.734Z,94.50
2023-04-28T13:29:37.348Z,94.30
2023-04-28T13:32:05.611Z,94.60
2023-04-28T13:34:32.883Z,94.90
2023-04-28T13:36:59.652Z,95.10
2023-04-28T13:39:26.423Z,94.80
2023-04-28T13:41:53.175Z,94.00
2023-04-28T13:44:19.997Z,93.80
2023-04-28T13:46:47.235Z,93.40
2023-04-28T13:49:14.037Z,93.10
2023-04-28T13:51:41.042Z,93.80
2023-04-28T13:54:08.963Z,93.10
2023-04-28T13:56:36.671Z,93.10
2023-04-28T13:59:03.981Z,93.10
2023-04-28T14:01:31.014Z,93.40
2023-04-28T14:03:58.152Z,93.00
2023-04-28T14:06:25.125Z,93.10
2023-04-28T14:08:51.990Z,93.20
2023-04-28T14:11:18.779Z,93.70
2023-04-28T14:13:45.533Z,93.70
2023-04-28T14:16:12.469Z,94.10
2023-04-28T14:18:39.217Z,94.10
2023-04-28T14:21:08.367Z,94.60
2023-04-28T14:23:35.645Z,95.10
2023-04-28T14:26:02.671Z,94.90
2023-04-28T14:28:29.617Z,96.90
2023-04-28T14:30:56.739Z,97.90
2023-04-28T14:33:24.305Z,98.00
2023-04-28T14:35:51.186Z,99.00
2023-04-28T14:38:18.048Z,99.50
2023-04-28T14:40:44.866Z,99.50
2023-04-28T14:43:11.643Z,98.40
2023-04-28T14:45:38.578Z,98.50
2023-04-28T14:48:07.074Z,97.90
2023-04-28T14:50:34.397Z,97.30
2023-04-28T14:53:05.521Z,97.30
2023-04-28T14:55:33.059Z,97.80
2023-04-28T14:57:59.814Z,97.70
2023-04-28T15:00:26.592Z,97.90
2023-04-28T15:02:53.674Z,98.00
2023-04-28T15:05:20.591Z,97.80
2023-04-28T15:07:47.449Z,98.20
2023-04-28T15:10:14.307Z,98.70
2023-04-28T15:12:42.448Z,98.70
2023-04-28T15:15:10.237Z,98.80
2023-04-28T15:17:37.101Z,99.00
2023-04-28T15:20:05.098Z,98.70
2023-04-28T15:22:31.832Z,98.60
2023-04-28T15:24:58.636Z,99.00
2023-04-28T15:27:25.442Z,99.20
2023-04-28T15:29:52.194Z,99.50
2023-04-28T15:32:19.168Z,99.80
2023-04-28T15:34:46.157Z,99.80
2023-04-28T15:37:38.455Z,99.90
2023-04-28T15:40:06.068Z,99.90
2023-04-28T15:42:32.960Z,99.90
2023-04-28T15:44:59.929Z,99.90
2023-04-28T15:47:26.717Z,99.90
2023-04-28T15:49:53.455Z,99.90
2023-04-28T15:52:20.263Z,99.90
2023-04-28T15:54:47.173Z,99.90
2023-04-28T15:57:14.024Z,99.90
2023-04-28T15:59:41.132Z,99.90
2023-04-28T16:04:35.476Z,99.90
2023-04-28T16:07:02.668Z,99.90
2023-04-28T16:09:30.005Z,99.90
2023-04-28T16:11:59.441Z,99.90
2023-04-28T16:14:26.997Z,99.90
2023-04-28T16:16:53.934Z,99.90
2023-04-28T16:19:21.738Z,99.90
2023-04-28T16:21:48.539Z,99.90
2023-04-28T16:24:15.279Z,99.90
2023-04-28T16:26:42.158Z,99.90
2023-04-28T16:29:08.961Z,99.90
2023-04-28T16:31:36.338Z,99.90
2023-04-28T16:34:03.921Z,99.90
2023-04-28T16:36:33.031Z,99.90
2023-04-28T16:38:59.881Z,99.90
2023-04-28T16:41:26.633Z,99.90
2023-04-28T16:43:53.418Z,99.90
2023-04-28T16:46:20.529Z,99.90
2023-04-28T16:48:47.334Z,99.90
2023-04-28T16:51:14.113Z,99.90
2023-04-28T16:53:41.358Z,99.90
2023-04-28T16:56:10.372Z,99.90
2023-04-28T16:58:37.508Z,99.90
2023-04-28T17:01:04.362Z,99.90
2023-04-28T17:03:31.605Z,99.90
2023-04-28T17:05:59.676Z,99.90
2023-04-28T17:08:26.796Z,99.90
2023-04-28T17:10:53.691Z,99.90
2023-04-28T17:13:20.446Z,99.90
2023-04-28T17:15:54.954Z,99.90
2023-04-28T17:18:21.831Z,99.90
2023-04-28T17:20:48.667Z,99.90
2023-04-28T17:23:15.763Z,99.90
2023-04-28T17:25:42.769Z,99.90
2023-04-28T17:28:09.671Z,99.90
2023-04-28T17:30:36.848Z,99.90
2023-04-28T17:33:04.080Z,99.90
2023-04-28T17:35:30.876Z,99.90
2023-04-28T17:37:57.608Z,99.90
2023-04-28T17:40:24.560Z,99.90
2023-04-28T17:42:54.169Z,99.90
2023-04-28T17:45:20.986Z,99.90
2023-04-28T17:47:47.829Z,99.90
2023-04-28T17:50:14.566Z,99.90
2023-04-28T17:55:11.067Z,99.90
2023-04-28T17:57:37.975Z,99.90
2023-04-28T18:00:06.302Z,99.90
2023-04-28T18:02:33.463Z,99.90
2023-04-28T18:05:00.369Z,99.90
2023-04-28T18:07:27.462Z,99.90
2023-04-28T18:09:56.993Z,99.90
2023-04-28T18:12:24.634Z,99.90
2023-04-28T18:14:51.984Z,99.90
2023-04-28T18:17:18.976Z,99.90
2023-04-28T18:19:51.283Z,99.90
2023-04-28T18:22:18.484Z,99.90
2023-04-28T18:24:45.250Z,99.90
2023-04-28T18:27:12.005Z,99.90
2023-04-28T18:29:38.805Z,99.90
2023-04-28T18:32:05.669Z,99.90
2023-04-28T18:34:32.455Z,99.90
2023-04-28T18:36:59.224Z,99.90
2023-04-28T18:39:26.195Z,99.90
2023-04-28T18:41:53.186Z,99.90
2023-04-28T18:44:20.000Z,99.90
2023-04-28T18:46:46.711Z,99.90
2023-04-28T18:49:14.662Z,99.90
2023-04-28T18:51:41.467Z,99.90
2023-04-28T18:54:08.454Z,99.90
2023-04-28T18:56:36.131Z,99.90
2023-04-28T18:59:05.983Z,99.90
2023-04-28T19:01:32.814Z,99.90
2023-04-28T19:03:59.858Z,99.90
2023-04-28T19:06:26.957Z,99.90
2023-04-28T19:08:53.805Z,99.90
2023-04-28T19:11:20.559Z,99.90
2023-04-28T19:13:47.752Z,99.90
2023-04-28T19:16:14.723Z,99.90
2023-04-28T19:18:42.236Z,99.90
2023-04-28T19:21:12.240Z,99.90
2023-04-28T19:23:41.266Z,99.90
2023-04-28T19:26:09.264Z,99.90
2023-04-28T19:28:36.135Z,99.90
2023-04-28T19:31:02.975Z,99.90
2023-04-28T19:33:29.798Z,99.90
2023-04-28T19:35:56.677Z,99.90
2023-04-28T19:38:23.707Z,99.90
2023-04-28T19:40:58.162Z,99.90
2023-04-28T19:43:25.007Z,99.90
2023-04-28T19:45:51.997Z,99.90
2023-04-28T19:48:19.444Z,99.90
2023-04-28T19:50:46.656Z,99.90
2023-04-28T19:53:13.679Z,99.90
2023-04-28T19:55:40.650Z,99.90
2023-04-28T19:58:09.774Z,99.90
2023-04-28T20:00:36.697Z,99.90
2023-04-28T20:03:04.086Z,99.90
2023-04-28T20:05:31.356Z,99.90
2023-04-28T20:07:58.134Z,99.90
2023-04-28T20:10:25.035Z,99.90
2023-04-28T20:12:51.896Z,99.90
2023-04-28T20:15:19.109Z,99.90
2023-04-28T20:17:46.308Z,99.90
2023-04-28T20:20:13.532Z,99.90
2023-04-28T20:22:43.011Z,99.90
2023-04-28T20:25:10.780Z,99.90
2023-04-28T20:27:37.805Z,99.90
2023-04-28T20:30:05.321Z,99.90
2023-04-28T20:32:32.349Z,99.90
2023-04-28T20:34:59.455Z,99.90
2023-04-28T20:37:26.510Z,99.90
2023-04-28T20:39:53.556Z,99.90
2023-04-28T20:42:20.452Z,99.90
2023-04-28T20:44:47.211Z,99.90
2023-04-28T20:47:14.362Z,99.90
2023-04-28T20:49:41.961Z,99.90
2023-04-28T20:52:09.272Z,99.90
2023-04-28T20:54:36.482Z,99.90
2023-04-28T20:57:04.800Z,99.90
2023-04-28T20:59:32.857Z,99.90
2023-04-28T21:02:00.347Z,99.90
2023-04-28T21:04:28.237Z,99.90
2023-04-28T21:06:55.564Z,99.90
2023-04-28T21:09:25.052Z,99.90
2023-04-28T21:11:52.099Z,99.90
2023-04-28T21:14:18.969Z,99.90
2023-04-28T21:16:45.833Z,99.90
2023-04-28T21:19:12.824Z,99.90
2023-04-28T21:21:39.611Z,99.90
2023-04-28T21:24:07.914Z,99.90
2023-04-28T21:26:35.810Z,99.90
2023-04-28T21:29:02.915Z,99.90
2023-04-28T21:31:31.253Z,99.90
2023-04-28T21:33:58.223Z,99.90
2023-04-28T21:36:25.025Z,99.90
2023-04-28T21:38:51.907Z,99.90
2023-04-28T21:41:18.692Z,99.90
2023-04-28T21:43:45.926Z,99.90
2023-04-28T21:46:13.226Z,99.90
2023-04-28T21:48:40.151Z,99.90
2023-04-28T21:51:06.956Z,99.90
2023-04-28T21:53:33.797Z,99.90
2023-04-28T21:56:02.738Z,99.90
2023-04-28T21:58:29.591Z,99.90
2023-04-28T22:00:56.368Z,99.90
2023-04-28T22:03:23.639Z,99.90
2023-04-28T22:05:51.154Z,99.90
2023-04-28T22:08:18.186Z,99.90
2023-04-28T22:10:45.562Z,99.90
2023-04-28T22:13:12.965Z,99.90
2023-04-28T22:15:39.873Z,99.90
2023-04-28T22:18:08.016Z,99.90
2023-04-28T22:20:34.826Z,99.90
2023-04-28T22:23:01.609Z,99.90
2023-04-28T22:25:28.368Z,99.90
2023-04-28T22:27:55.217Z,99.90
2023-04-28T22:30:24.334Z,99.90
2023-04-28T22:32:52.599Z,99.90
2023-04-28T22:35:19.599Z,99.90
2023-04-28T22:37:46.299Z,99.90
2023-04-28T22:42:41.463Z,99.90
2023-04-28T22:45:09.994Z,99.90
2023-04-28T22:47:38.628Z,99.90
2023-04-28T22:50:06.531Z,99.90
2023-04-28T22:52:34.008Z,99.90
2023-04-28T22:55:01.111Z,99.90
2023-04-28T22:57:28.134Z,99.90
2023-04-28T22:59:54.972Z,99.90
2023-04-28T23:02:22.913Z,99.90
2023-04-28T23:04:50.038Z,99.90
2023-04-28T23:07:17.053Z,99.90
2023-04-28T23:09:43.820Z,99.90
2023-04-28T23:12:10.656Z,99.90
2023-04-28T23:14:38.140Z,99.90
2023-04-28T23:17:05.067Z,99.90
2023-04-28T23:19:32.054Z,99.90
2023-04-28T23:21:58.837Z,99.90
2023-04-28T23:24:27.114Z,99.90
2023-04-28T23:26:53.983Z,99.90
2023-04-28T23:29:20.706Z,99.90
2023-04-28T23:31:52.494Z,99.90
2023-04-28T23:34:19.465Z,99.90
2023-04-28T23:36:46.246Z,99.90
2023-04-28T23:39:13.662Z,99.90
2023-04-28T23:41:41.019Z,99.90
2023-04-28T23:44:08.359Z,99.90
2023-04-28T23:46:36.738Z,99.90
2023-04-28T23:49:03.835Z,99.90
2023-04-28T23:51:32.211Z,99.90
2023-04-28T23:53:59.395Z,99.90
2023-04-28T23:56:26.857Z,99.90
2023-04-28T23:58:53.878Z,99.90
